sensor_id;sensor_type;location;lat;lon;timestamp;temperature;humidity
18753;DHT22;9505;50.882;5.350;2023-11-19T00:01:49;12.90;99.90
18753;DHT22;9505;50.882;5.350;2023-11-19T00:04:14;13.00;99.90
18753;DHT22;9505;50.882;5.350;2023-11-19T00:06:40;13.00;99.90
18753;DHT22;9505;50.882;5.350;2023-11-19T00:09:06;13.00;99.90
18753;DHT22;9505;50.882;5.350;2023-11-19T00:11:33;13.00;99.90
18753;DHT22;9505;50.882;5.350;2023-11-19T00:13:59;13.00;99.90
18753;DHT22;9505;50.882;5.350;2023-11-19T00:16:24;13.00;99.90
18753;DHT22;9505;50.882;5.350;2023-11-19T00:18:50;13.00;99.90
18753;DHT22;9505;50.882;5.350;2023-11-19T00:21:15;13.00;99.90
18753;DHT22;9505;50.882;5.350;2023-11-19T00:23:41;13.00;99.90
18753;DHT22;9505;50.882;5.350;2023-11-19T00:26:07;13.00;99.90
18753;DHT22;9505;50.882;5.350;2023-11-19T00:28:33;13.10;99.90
18753;DHT22;9505;50.882;5.350;2023-11-19T00:30:59;13.10;99.90
18753;DHT22;9505;50.882;5.350;2023-11-19T00:33:25;13.10;99.90
18753;DHT22;9505;50.882;5.350;2023-11-19T00:35:50;13.10;99.90
18753;DHT22;9505;50.882;5.350;2023-11-19T00:38:16;13.10;99.90
18753;DHT22;9505;50.882;5.350;2023-11-19T00:40:41;13.10;99.90
18753;DHT22;9505;50.882;5.350;2023-11-19T00:43:07;13.10;99.90
18753;DHT22;9505;50.882;5.350;2023-11-19T00:45:33;13.10;99.90
18753;DHT22;9505;50.882;5.350;2023-11-19T00:47:59;13.10;99.90
18753;DHT22;9505;50.882;5.350;2023-11-19T00:50:25;13.20;99.90
18753;DHT22;9505;50.882;5.350;2023-11-19T00:52:51;13.20;99.90
18753;DHT22;9505;50.882;5.350;2023-11-19T00:55:16;13.20;99.90
18753;DHT22;9505;50.882;5.350;2023-11-19T00:57:43;13.20;99.90
18753;DHT22;9505;50.882;5.350;2023-11-19T01:00:09;13.20;99.90
18753;DHT22;9505;50.882;5.350;2023-11-19T01:02:46;13.20;99.90
18753;DHT22;9505;50.882;5.350;2023-11-19T01:05:14;13.20;99.90
18753;DHT22;9505;50.882;5.350;2023-11-19T01:07:40;13.20;99.90
18753;DHT22;9505;50.882;5.350;2023-11-19T01:10:06;13.20;99.90
18753;DHT22;9505;50.882;5.350;2023-11-19T01:12:34;13.20;99.90
18753;DHT22;9505;50.882;5.350;2023-11-19T01:14:59;13.20;99.90
18753;DHT22;9505;50.882;5.350;2023-11-19T01:17:26;13.30;99.90
18753;DHT22;9505;50.882;5.350;2023-11-19T01:19:52;13.30;99.90
18753;DHT22;9505;50.882;5.350;2023-11-19T01:22:17;13.30;99.90
18753;DHT22;9505;50.882;5.350;2023-11-19T01:24:44;13.30;99.90
18753;DHT22;9505;50.882;5.350;2023-11-19T01:27:09;13.30;99.90
18753;DHT22;9505;50.882;5.350;2023-11-19T01:29:35;13.30;99.90
18753;DHT22;9505;50.882;5.350;2023-11-19T01:32:03;13.30;99.90
18753;DHT22;9505;50.882;5.350;2023-11-19T01:34:29;13.30;99.90
18753;DHT22;9505;50.882;5.350;2023-11-19T01:36:55;13.30;99.90
18753;DHT22;9505;50.882;5.350;2023-11-19T01:39:20;13.40;99.90
18753;DHT22;9505;50.882;5.350;2023-11-19T01:41:46;13.40;99.90
18753;DHT22;9505;50.882;5.350;2023-11-19T01:44:12;13.40;99.90
18753;DHT22;9505;50.882;5.350;2023-11-19T01:46:43;13.40;99.90
18753;DHT22;9505;50.882;5.350;2023-11-19T01:49:09;13.40;99.90
18753;DHT22;9505;50.882;5.350;2023-11-19T01:51:38;13.40;99.90
18753;DHT22;9505;50.882;5.350;2023-11-19T01:54:04;13.40;99.90
18753;DHT22;9505;50.882;5.350;2023-11-19T01:56:30;13.40;99.90
18753;DHT22;9505;50.882;5.350;2023-11-19T01:58:57;13.30;99.90
18753;DHT22;9505;50.882;5.350;2023-11-19T02:01:23;13.30;99.90
18753;DHT22;9505;50.882;5.350;2023-11-19T02:03:49;13.30;99.90
18753;DHT22;9505;50.882;5.350;2023-11-19T02:06:15;13.40;99.90
18753;DHT22;9505;50.882;5.350;2023-11-19T02:08:40;13.40;99.90
18753;DHT22;9505;50.882;5.350;2023-11-19T02:11:07;13.40;99.90
18753;DHT22;9505;50.882;5.350;2023-11-19T02:13:32;13.40;99.90
18753;DHT22;9505;50.882;5.350;2023-11-19T02:15:58;13.40;99.90
18753;DHT22;9505;50.882;5.350;2023-11-19T02:18:26;13.50;99.90
18753;DHT22;9505;50.882;5.350;2023-11-19T02:20:57;13.40;99.90
18753;DHT22;9505;50.882;5.350;2023-11-19T02:23:23;13.40;99.90
18753;DHT22;9505;50.882;5.350;2023-11-19T02:28:36;13.40;99.90
18753;DHT22;9505;50.882;5.350;2023-11-19T02:31:02;13.40;99.90
18753;DHT22;9505;50.882;5.350;2023-11-19T02:33:30;13.50;99.90
18753;DHT22;9505;50.882;5.350;2023-11-19T02:35:56;13.50;99.90
18753;DHT22;9505;50.882;5.350;2023-11-19T02:38:21;13.40;99.90
18753;DHT22;9505;50.882;5.350;2023-11-19T02:40:48;13.40;99.90
18753;DHT22;9505;50.882;5.350;2023-11-19T02:43:14;13.50;99.90
18753;DHT22;9505;50.882;5.350;2023-11-19T02:45:40;13.40;99.90
18753;DHT22;9505;50.882;5.350;2023-11-19T02:48:06;13.40;99.90
18753;DHT22;9505;50.882;5.350;2023-11-19T02:50:31;13.40;99.90
18753;DHT22;9505;50.882;5.350;2023-11-19T02:52:57;13.40;99.90
18753;DHT22;9505;50.882;5.350;2023-11-19T02:55:23;13.30;99.90
18753;DHT22;9505;50.882;5.350;2023-11-19T02:57:50;13.30;99.90
18753;DHT22;9505;50.882;5.350;2023-11-19T03:00:17;13.30;99.90
18753;DHT22;9505;50.882;5.350;2023-11-19T03:02:46;13.30;99.90
18753;DHT22;9505;50.882;5.350;2023-11-19T03:05:15;13.30;99.90
18753;DHT22;9505;50.882;5.350;2023-11-19T03:07:42;13.30;99.90
18753;DHT22;9505;50.882;5.350;2023-11-19T03:10:09;13.30;99.90
18753;DHT22;9505;50.882;5.350;2023-11-19T03:12:39;13.20;99.90
18753;DHT22;9505;50.882;5.350;2023-11-19T03:15:05;13.20;99.90
18753;DHT22;9505;50.882;5.350;2023-11-19T03:17:31;13.10;99.90
18753;DHT22;9505;50.882;5.350;2023-11-19T03:19:56;13.00;99.90
18753;DHT22;9505;50.882;5.350;2023-11-19T03:22:22;13.00;99.90
18753;DHT22;9505;50.882;5.350;2023-11-19T03:24:51;12.90;99.90
18753;DHT22;9505;50.882;5.350;2023-11-19T03:27:16;12.90;99.90
18753;DHT22;9505;50.882;5.350;2023-11-19T03:29:42;12.90;99.90
18753;DHT22;9505;50.882;5.350;2023-11-19T03:32:08;12.90;99.90
18753;DHT22;9505;50.882;5.350;2023-11-19T03:34:34;12.80;99.90
18753;DHT22;9505;50.882;5.350;2023-11-19T03:36:59;12.80;99.90
18753;DHT22;9505;50.882;5.350;2023-11-19T03:39:25;12.70;99.90
18753;DHT22;9505;50.882;5.350;2023-11-19T03:41:52;12.70;99.90
18753;DHT22;9505;50.882;5.350;2023-11-19T03:44:18;12.70;99.90
18753;DHT22;9505;50.882;5.350;2023-11-19T03:46:44;12.70;99.90
18753;DHT22;9505;50.882;5.350;2023-11-19T03:49:10;12.60;99.90
18753;DHT22;9505;50.882;5.350;2023-11-19T03:51:35;12.60;99.90
18753;DHT22;9505;50.882;5.350;2023-11-19T03:54:01;12.60;99.90
18753;DHT22;9505;50.882;5.350;2023-11-19T03:56:26;12.60;99.90
18753;DHT22;9505;50.882;5.350;2023-11-19T03:58:52;12.50;99.90
18753;DHT22;9505;50.882;5.350;2023-11-19T04:01:18;12.50;99.90
18753;DHT22;9505;50.882;5.350;2023-11-19T04:03:44;12.60;99.90
18753;DHT22;9505;50.882;5.350;2023-11-19T04:06:10;12.50;99.90
18753;DHT22;9505;50.882;5.350;2023-11-19T04:08:35;12.50;99.90
18753;DHT22;9505;50.882;5.350;2023-11-19T04:11:04;12.50;99.90
18753;DHT22;9505;50.882;5.350;2023-11-19T04:13:30;12.50;99.90
18753;DHT22;9505;50.882;5.350;2023-11-19T04:15:56;12.40;99.90
18753;DHT22;9505;50.882;5.350;2023-11-19T04:18:21;12.40;99.90
18753;DHT22;9505;50.882;5.350;2023-11-19T04:20:47;12.40;99.90
18753;DHT22;9505;50.882;5.350;2023-11-19T04:23:13;12.30;99.90
18753;DHT22;9505;50.882;5.350;2023-11-19T04:25:38;12.40;99.90
18753;DHT22;9505;50.882;5.350;2023-11-19T04:28:04;12.40;99.90
18753;DHT22;9505;50.882;5.350;2023-11-19T04:30:29;12.30;99.90
18753;DHT22;9505;50.882;5.350;2023-11-19T04:32:57;12.40;99.90
18753;DHT22;9505;50.882;5.350;2023-11-19T04:35:23;12.30;99.90
18753;DHT22;9505;50.882;5.350;2023-11-19T04:37:48;12.30;99.90
18753;DHT22;9505;50.882;5.350;2023-11-19T04:40:14;12.30;99.90
18753;DHT22;9505;50.882;5.350;2023-11-19T04:42:40;12.30;99.90
18753;DHT22;9505;50.882;5.350;2023-11-19T04:45:06;12.30;99.90
18753;DHT22;9505;50.882;5.350;2023-11-19T04:47:32;12.30;99.90
18753;DHT22;9505;50.882;5.350;2023-11-19T04:49:58;12.30;99.90
18753;DHT22;9505;50.882;5.350;2023-11-19T04:52:24;12.30;99.90
18753;DHT22;9505;50.882;5.350;2023-11-19T04:54:49;12.30;99.90
18753;DHT22;9505;50.882;5.350;2023-11-19T04:57:15;12.20;99.90
18753;DHT22;9505;50.882;5.350;2023-11-19T04:59:41;12.30;99.90
18753;DHT22;9505;50.882;5.350;2023-11-19T05:02:08;12.30;99.90
18753;DHT22;9505;50.882;5.350;2023-11-19T05:04:34;12.30;99.90
18753;DHT22;9505;50.882;5.350;2023-11-19T05:06:59;12.30;99.90
18753;DHT22;9505;50.882;5.350;2023-11-19T05:09:25;12.30;99.90
18753;DHT22;9505;50.882;5.350;2023-11-19T05:11:50;12.30;99.90
18753;DHT22;9505;50.882;5.350;2023-11-19T05:14:16;12.30;99.90
18753;DHT22;9505;50.882;5.350;2023-11-19T05:16:42;12.40;99.90
18753;DHT22;9505;50.882;5.350;2023-11-19T05:19:08;12.30;99.90
18753;DHT22;9505;50.882;5.350;2023-11-19T05:21:34;12.40;99.90
18753;DHT22;9505;50.882;5.350;2023-11-19T05:24:01;12.40;99.90
18753;DHT22;9505;50.882;5.350;2023-11-19T05:26:30;12.40;99.90
18753;DHT22;9505;50.882;5.350;2023-11-19T05:28:55;12.40;99.90
18753;DHT22;9505;50.882;5.350;2023-11-19T05:31:21;12.40;99.90
18753;DHT22;9505;50.882;5.350;2023-11-19T05:33:46;12.40;99.90
18753;DHT22;9505;50.882;5.350;2023-11-19T05:36:12;12.40;99.90
18753;DHT22;9505;50.882;5.350;2023-11-19T05:38:38;12.40;99.90
18753;DHT22;9505;50.882;5.350;2023-11-19T05:41:04;12.40;99.90
18753;DHT22;9505;50.882;5.350;2023-11-19T05:43:31;12.40;99.90
18753;DHT22;9505;50.882;5.350;2023-11-19T05:45:57;12.50;99.90
18753;DHT22;9505;50.882;5.350;2023-11-19T05:48:22;12.40;99.90
18753;DHT22;9505;50.882;5.350;2023-11-19T05:50:48;12.30;99.90
18753;DHT22;9505;50.882;5.350;2023-11-19T05:53:15;12.30;99.90
18753;DHT22;9505;50.882;5.350;2023-11-19T05:55:41;12.30;99.90
18753;DHT22;9505;50.882;5.350;2023-11-19T05:58:24;12.40;99.90
18753;DHT22;9505;50.882;5.350;2023-11-19T06:00:51;12.40;99.90
18753;DHT22;9505;50.882;5.350;2023-11-19T06:03:17;12.30;99.90
18753;DHT22;9505;50.882;5.350;2023-11-19T06:05:46;12.30;99.90
18753;DHT22;9505;50.882;5.350;2023-11-19T06:08:12;12.20;99.90
18753;DHT22;9505;50.882;5.350;2023-11-19T06:10:41;12.10;99.90
18753;DHT22;9505;50.882;5.350;2023-11-19T06:13:07;12.10;99.90
18753;DHT22;9505;50.882;5.350;2023-11-19T06:15:35;12.00;99.90
18753;DHT22;9505;50.882;5.350;2023-11-19T06:18:02;12.00;99.90
18753;DHT22;9505;50.882;5.350;2023-11-19T06:20:29;12.00;99.90
18753;DHT22;9505;50.882;5.350;2023-11-19T06:22:56;12.00;99.90
18753;DHT22;9505;50.882;5.350;2023-11-19T06:25:22;12.10;99.90
18753;DHT22;9505;50.882;5.350;2023-11-19T06:27:49;12.00;99.90
18753;DHT22;9505;50.882;5.350;2023-11-19T06:30:15;12.00;99.90
18753;DHT22;9505;50.882;5.350;2023-11-19T06:32:40;11.90;99.90
18753;DHT22;9505;50.882;5.350;2023-11-19T06:35:06;11.80;99.90
18753;DHT22;9505;50.882;5.350;2023-11-19T06:37:32;11.80;99.90
18753;DHT22;9505;50.882;5.350;2023-11-19T06:39:58;11.70;99.90
18753;DHT22;9505;50.882;5.350;2023-11-19T06:42:24;11.70;99.90
18753;DHT22;9505;50.882;5.350;2023-11-19T06:44:50;11.80;99.90
18753;DHT22;9505;50.882;5.350;2023-11-19T06:47:17;11.80;99.90
18753;DHT22;9505;50.882;5.350;2023-11-19T06:49:45;11.70;99.90
18753;DHT22;9505;50.882;5.350;2023-11-19T06:52:11;11.70;99.90
18753;DHT22;9505;50.882;5.350;2023-11-19T06:54:39;11.70;99.90
18753;DHT22;9505;50.882;5.350;2023-11-19T06:57:05;11.70;99.90
18753;DHT22;9505;50.882;5.350;2023-11-19T06:59:30;11.70;99.90
18753;DHT22;9505;50.882;5.350;2023-11-19T07:01:56;11.70;99.90
18753;DHT22;9505;50.882;5.350;2023-11-19T07:04:22;11.70;99.90
18753;DHT22;9505;50.882;5.350;2023-11-19T07:06:47;11.70;99.90
18753;DHT22;9505;50.882;5.350;2023-11-19T07:09:14;11.70;99.90
18753;DHT22;9505;50.882;5.350;2023-11-19T07:11:40;11.70;99.90
18753;DHT22;9505;50.882;5.350;2023-11-19T07:14:09;11.80;99.90
18753;DHT22;9505;50.882;5.350;2023-11-19T07:16:35;11.70;99.90
18753;DHT22;9505;50.882;5.350;2023-11-19T07:19:05;11.70;99.90
18753;DHT22;9505;50.882;5.350;2023-11-19T07:21:31;11.70;99.90
18753;DHT22;9505;50.882;5.350;2023-11-19T07:23:58;11.60;99.90
18753;DHT22;9505;50.882;5.350;2023-11-19T07:26:24;11.50;99.90
18753;DHT22;9505;50.882;5.350;2023-11-19T07:28:50;11.50;99.90
18753;DHT22;9505;50.882;5.350;2023-11-19T07:31:16;11.60;99.90
18753;DHT22;9505;50.882;5.350;2023-11-19T07:33:45;11.60;99.90
18753;DHT22;9505;50.882;5.350;2023-11-19T07:36:12;11.60;99.90
18753;DHT22;9505;50.882;5.350;2023-11-19T07:38:37;11.70;99.90
18753;DHT22;9505;50.882;5.350;2023-11-19T07:41:07;11.60;99.90
18753;DHT22;9505;50.882;5.350;2023-11-19T07:43:35;11.60;99.90
18753;DHT22;9505;50.882;5.350;2023-11-19T07:46:01;11.70;99.90
18753;DHT22;9505;50.882;5.350;2023-11-19T07:48:27;11.70;99.90
18753;DHT22;9505;50.882;5.350;2023-11-19T07:50:53;11.70;99.90
18753;DHT22;9505;50.882;5.350;2023-11-19T07:53:19;11.80;99.90
18753;DHT22;9505;50.882;5.350;2023-11-19T07:55:45;11.90;99.90
18753;DHT22;9505;50.882;5.350;2023-11-19T07:58:11;11.80;99.90
18753;DHT22;9505;50.882;5.350;2023-11-19T08:00:37;11.80;99.90
18753;DHT22;9505;50.882;5.350;2023-11-19T08:03:04;11.90;99.90
18753;DHT22;9505;50.882;5.350;2023-11-19T08:05:30;12.00;99.90
18753;DHT22;9505;50.882;5.350;2023-11-19T08:07:56;12.10;99.90
18753;DHT22;9505;50.882;5.350;2023-11-19T08:10:22;12.30;99.90
18753;DHT22;9505;50.882;5.350;2023-11-19T08:12:48;12.20;99.90
18753;DHT22;9505;50.882;5.350;2023-11-19T08:15:14;12.40;99.90
18753;DHT22;9505;50.882;5.350;2023-11-19T08:17:40;12.50;99.90
18753;DHT22;9505;50.882;5.350;2023-11-19T08:20:06;12.50;99.90
18753;DHT22;9505;50.882;5.350;2023-11-19T08:22:36;12.50;99.90
18753;DHT22;9505;50.882;5.350;2023-11-19T08:25:01;12.50;99.90
18753;DHT22;9505;50.882;5.350;2023-11-19T08:27:27;12.60;99.90
18753;DHT22;9505;50.882;5.350;2023-11-19T08:29:54;12.70;99.90
18753;DHT22;9505;50.882;5.350;2023-11-19T08:32:24;12.90;99.90
18753;DHT22;9505;50.882;5.350;2023-11-19T08:34:50;13.00;99.90
18753;DHT22;9505;50.882;5.350;2023-11-19T08:37:15;13.10;99.90
18753;DHT22;9505;50.882;5.350;2023-11-19T08:39:43;13.10;99.90
18753;DHT22;9505;50.882;5.350;2023-11-19T08:42:09;13.30;99.90
18753;DHT22;9505;50.882;5.350;2023-11-19T08:44:34;13.20;99.90
18753;DHT22;9505;50.882;5.350;2023-11-19T08:47:00;13.30;99.90
18753;DHT22;9505;50.882;5.350;2023-11-19T08:49:26;13.30;99.90
18753;DHT22;9505;50.882;5.350;2023-11-19T08:51:51;13.70;99.90
18753;DHT22;9505;50.882;5.350;2023-11-19T08:54:17;14.30;99.90
18753;DHT22;9505;50.882;5.350;2023-11-19T08:56:43;14.70;99.90
18753;DHT22;9505;50.882;5.350;2023-11-19T08:59:08;15.00;99.90
18753;DHT22;9505;50.882;5.350;2023-11-19T09:01:34;14.50;99.90
18753;DHT22;9505;50.882;5.350;2023-11-19T09:04:00;14.40;99.90
18753;DHT22;9505;50.882;5.350;2023-11-19T09:06:25;14.40;99.90
18753;DHT22;9505;50.882;5.350;2023-11-19T09:08:51;14.80;99.90
18753;DHT22;9505;50.882;5.350;2023-11-19T09:11:17;14.80;99.90
18753;DHT22;9505;50.882;5.350;2023-11-19T09:13:43;14.80;99.90
18753;DHT22;9505;50.882;5.350;2023-11-19T09:16:12;14.90;99.90
18753;DHT22;9505;50.882;5.350;2023-11-19T09:18:37;14.90;99.90
18753;DHT22;9505;50.882;5.350;2023-11-19T09:21:03;14.90;99.90
18753;DHT22;9505;50.882;5.350;2023-11-19T09:23:29;15.00;99.90
18753;DHT22;9505;50.882;5.350;2023-11-19T09:25:58;14.80;99.90
18753;DHT22;9505;50.882;5.350;2023-11-19T09:28:23;14.60;99.90
18753;DHT22;9505;50.882;5.350;2023-11-19T09:30:49;14.50;99.90
18753;DHT22;9505;50.882;5.350;2023-11-19T09:33:14;14.50;99.90
18753;DHT22;9505;50.882;5.350;2023-11-19T09:35:40;14.60;99.90
18753;DHT22;9505;50.882;5.350;2023-11-19T09:38:05;14.20;99.90
18753;DHT22;9505;50.882;5.350;2023-11-19T09:40:31;13.70;99.90
18753;DHT22;9505;50.882;5.350;2023-11-19T09:42:57;13.40;99.90
18753;DHT22;9505;50.882;5.350;2023-11-19T09:45:27;13.30;99.90
18753;DHT22;9505;50.882;5.350;2023-11-19T09:47:53;13.10;99.90
18753;DHT22;9505;50.882;5.350;2023-11-19T09:50:20;12.70;99.90
18753;DHT22;9505;50.882;5.350;2023-11-19T09:52:46;12.40;99.90
18753;DHT22;9505;50.882;5.350;2023-11-19T09:55:12;12.40;99.90
18753;DHT22;9505;50.882;5.350;2023-11-19T09:57:39;12.50;99.90
18753;DHT22;9505;50.882;5.350;2023-11-19T10:00:06;12.60;99.90
18753;DHT22;9505;50.882;5.350;2023-11-19T10:02:34;12.80;99.90
18753;DHT22;9505;50.882;5.350;2023-11-19T10:05:11;13.10;99.90
18753;DHT22;9505;50.882;5.350;2023-11-19T10:07:38;13.00;99.90
18753;DHT22;9505;50.882;5.350;2023-11-19T10:10:05;13.20;99.90
18753;DHT22;9505;50.882;5.350;2023-11-19T10:12:31;13.50;99.90
18753;DHT22;9505;50.882;5.350;2023-11-19T10:14:57;13.80;99.90
18753;DHT22;9505;50.882;5.350;2023-11-19T10:17:34;13.70;99.90
18753;DHT22;9505;50.882;5.350;2023-11-19T10:20:00;13.80;99.90
18753;DHT22;9505;50.882;5.350;2023-11-19T10:22:27;14.10;99.90
18753;DHT22;9505;50.882;5.350;2023-11-19T10:24:53;14.20;99.90
18753;DHT22;9505;50.882;5.350;2023-11-19T10:27:19;14.10;99.90
18753;DHT22;9505;50.882;5.350;2023-11-19T10:29:46;14.20;99.90
18753;DHT22;9505;50.882;5.350;2023-11-19T10:32:13;14.50;99.90
18753;DHT22;9505;50.882;5.350;2023-11-19T10:34:41;14.70;99.90
18753;DHT22;9505;50.882;5.350;2023-11-19T10:37:08;14.90;99.90
18753;DHT22;9505;50.882;5.350;2023-11-19T10:39:53;15.30;99.90
18753;DHT22;9505;50.882;5.350;2023-11-19T10:42:22;15.30;99.90
18753;DHT22;9505;50.882;5.350;2023-11-19T10:44:48;14.80;99.90
18753;DHT22;9505;50.882;5.350;2023-11-19T10:47:14;14.80;99.90
18753;DHT22;9505;50.882;5.350;2023-11-19T10:49:42;15.00;99.90
18753;DHT22;9505;50.882;5.350;2023-11-19T10:52:09;15.20;99.90
18753;DHT22;9505;50.882;5.350;2023-11-19T10:54:35;15.40;99.90
18753;DHT22;9505;50.882;5.350;2023-11-19T10:57:02;15.40;99.90
18753;DHT22;9505;50.882;5.350;2023-11-19T10:59:30;14.90;99.90
18753;DHT22;9505;50.882;5.350;2023-11-19T11:01:56;14.50;99.90
18753;DHT22;9505;50.882;5.350;2023-11-19T11:04:25;14.70;99.90
18753;DHT22;9505;50.882;5.350;2023-11-19T11:06:54;14.70;99.90
18753;DHT22;9505;50.882;5.350;2023-11-19T11:09:21;14.70;99.90
18753;DHT22;9505;50.882;5.350;2023-11-19T11:11:47;14.70;99.90
18753;DHT22;9505;50.882;5.350;2023-11-19T11:14:13;14.90;99.90
18753;DHT22;9505;50.882;5.350;2023-11-19T11:16:43;14.70;99.90
18753;DHT22;9505;50.882;5.350;2023-11-19T11:19:10;14.80;99.90
18753;DHT22;9505;50.882;5.350;2023-11-19T11:21:39;14.60;99.90
18753;DHT22;9505;50.882;5.350;2023-11-19T11:27:33;14.30;99.90
18753;DHT22;9505;50.882;5.350;2023-11-19T11:30:14;14.20;99.90
18753;DHT22;9505;50.882;5.350;2023-11-19T11:33:18;14.10;99.90
18753;DHT22;9505;50.882;5.350;2023-11-19T11:38:40;14.20;99.90
18753;DHT22;9505;50.882;5.350;2023-11-19T11:41:33;14.10;99.90
18753;DHT22;9505;50.882;5.350;2023-11-19T11:43:59;14.00;99.90
18753;DHT22;9505;50.882;5.350;2023-11-19T11:49:07;14.10;99.90
18753;DHT22;9505;50.882;5.350;2023-11-19T11:57:21;14.00;99.90
18753;DHT22;9505;50.882;5.350;2023-11-19T11:59:48;13.80;99.90
18753;DHT22;9505;50.882;5.350;2023-11-19T12:02:19;13.70;99.90
18753;DHT22;9505;50.882;5.350;2023-11-19T12:04:51;13.80;99.90
18753;DHT22;9505;50.882;5.350;2023-11-19T12:07:21;13.70;99.90
18753;DHT22;9505;50.882;5.350;2023-11-19T12:09:52;13.60;99.90
18753;DHT22;9505;50.882;5.350;2023-11-19T12:12:21;13.70;99.90
18753;DHT22;9505;50.882;5.350;2023-11-19T12:20:06;13.90;99.90
18753;DHT22;9505;50.882;5.350;2023-11-19T12:22:39;14.60;99.90
18753;DHT22;9505;50.882;5.350;2023-11-19T12:25:06;14.80;99.90
18753;DHT22;9505;50.882;5.350;2023-11-19T12:27:33;15.10;99.90
18753;DHT22;9505;50.882;5.350;2023-11-19T12:30:00;14.90;99.90
18753;DHT22;9505;50.882;5.350;2023-11-19T12:32:25;14.70;99.90
18753;DHT22;9505;50.882;5.350;2023-11-19T12:34:51;14.90;99.90
18753;DHT22;9505;50.882;5.350;2023-11-19T12:37:17;15.30;99.90
18753;DHT22;9505;50.882;5.350;2023-11-19T12:39:42;15.10;99.90
18753;DHT22;9505;50.882;5.350;2023-11-19T12:42:08;15.30;99.90
18753;DHT22;9505;50.882;5.350;2023-11-19T12:44:34;15.30;99.90
18753;DHT22;9505;50.882;5.350;2023-11-19T12:47:05;15.30;99.90
18753;DHT22;9505;50.882;5.350;2023-11-19T12:49:32;15.80;99.90
18753;DHT22;9505;50.882;5.350;2023-11-19T12:51:58;15.30;99.90
18753;DHT22;9505;50.882;5.350;2023-11-19T12:54:34;14.90;99.90
18753;DHT22;9505;50.882;5.350;2023-11-19T12:57:02;15.00;99.90
18753;DHT22;9505;50.882;5.350;2023-11-19T12:59:28;15.10;99.90
18753;DHT22;9505;50.882;5.350;2023-11-19T13:01:56;14.80;99.90
18753;DHT22;9505;50.882;5.350;2023-11-19T13:04:22;14.70;99.90
18753;DHT22;9505;50.882;5.350;2023-11-19T13:06:50;14.70;99.90
18753;DHT22;9505;50.882;5.350;2023-11-19T13:09:26;14.20;99.90
18753;DHT22;9505;50.882;5.350;2023-11-19T13:11:53;13.90;99.90
18753;DHT22;9505;50.882;5.350;2023-11-19T13:14:19;13.70;99.90
18753;DHT22;9505;50.882;5.350;2023-11-19T13:16:45;13.70;99.90
18753;DHT22;9505;50.882;5.350;2023-11-19T13:19:12;13.60;99.90
18753;DHT22;9505;50.882;5.350;2023-11-19T13:21:38;13.40;99.90
18753;DHT22;9505;50.882;5.350;2023-11-19T13:24:06;13.40;99.90
18753;DHT22;9505;50.882;5.350;2023-11-19T13:26:31;13.40;99.90
18753;DHT22;9505;50.882;5.350;2023-11-19T13:28:57;13.30;99.90
18753;DHT22;9505;50.882;5.350;2023-11-19T13:31:23;13.20;99.90
18753;DHT22;9505;50.882;5.350;2023-11-19T13:33:48;13.20;99.90
18753;DHT22;9505;50.882;5.350;2023-11-19T13:36:14;13.00;99.90
18753;DHT22;9505;50.882;5.350;2023-11-19T13:38:40;13.10;99.90
18753;DHT22;9505;50.882;5.350;2023-11-19T13:41:10;13.50;99.90
18753;DHT22;9505;50.882;5.350;2023-11-19T13:43:37;14.10;99.90
18753;DHT22;9505;50.882;5.350;2023-11-19T13:46:03;14.10;99.90
18753;DHT22;9505;50.882;5.350;2023-11-19T13:48:30;13.70;99.90
18753;DHT22;9505;50.882;5.350;2023-11-19T13:50:55;13.50;99.90
18753;DHT22;9505;50.882;5.350;2023-11-19T13:53:22;13.50;99.90
18753;DHT22;9505;50.882;5.350;2023-11-19T13:55:49;13.40;99.90
18753;DHT22;9505;50.882;5.350;2023-11-19T13:58:14;13.50;99.90
18753;DHT22;9505;50.882;5.350;2023-11-19T14:00:41;13.50;99.90
18753;DHT22;9505;50.882;5.350;2023-11-19T14:03:07;13.70;99.90
18753;DHT22;9505;50.882;5.350;2023-11-19T14:05:33;13.50;99.90
18753;DHT22;9505;50.882;5.350;2023-11-19T14:07:58;13.20;99.90
18753;DHT22;9505;50.882;5.350;2023-11-19T14:10:24;13.30;99.90
18753;DHT22;9505;50.882;5.350;2023-11-19T14:12:50;13.30;99.90
18753;DHT22;9505;50.882;5.350;2023-11-19T14:15:16;13.10;99.90
18753;DHT22;9505;50.882;5.350;2023-11-19T14:17:45;13.00;99.90
18753;DHT22;9505;50.882;5.350;2023-11-19T14:20:10;12.90;99.90
18753;DHT22;9505;50.882;5.350;2023-11-19T14:22:44;13.00;99.90
18753;DHT22;9505;50.882;5.350;2023-11-19T14:25:11;13.10;99.90
18753;DHT22;9505;50.882;5.350;2023-11-19T14:27:40;13.00;99.90
18753;DHT22;9505;50.882;5.350;2023-11-19T14:30:09;13.20;99.90
18753;DHT22;9505;50.882;5.350;2023-11-19T14:32:36;13.10;99.90
18753;DHT22;9505;50.882;5.350;2023-11-19T14:35:03;13.00;99.90
18753;DHT22;9505;50.882;5.350;2023-11-19T14:37:29;12.90;99.90
18753;DHT22;9505;50.882;5.350;2023-11-19T14:39:58;12.90;99.90
18753;DHT22;9505;50.882;5.350;2023-11-19T14:42:25;12.90;99.90
18753;DHT22;9505;50.882;5.350;2023-11-19T14:44:53;12.90;99.90
18753;DHT22;9505;50.882;5.350;2023-11-19T14:47:22;12.90;99.90
18753;DHT22;9505;50.882;5.350;2023-11-19T14:49:48;12.80;99.90
18753;DHT22;9505;50.882;5.350;2023-11-19T14:52:13;12.90;99.90
18753;DHT22;9505;50.882;5.350;2023-11-19T14:54:39;12.90;99.90
18753;DHT22;9505;50.882;5.350;2023-11-19T14:57:06;13.00;99.90
18753;DHT22;9505;50.882;5.350;2023-11-19T14:59:33;13.00;99.90
18753;DHT22;9505;50.882;5.350;2023-11-19T15:01:59;13.00;99.90
18753;DHT22;9505;50.882;5.350;2023-11-19T15:04:26;13.00;99.90
18753;DHT22;9505;50.882;5.350;2023-11-19T15:06:52;13.00;99.90
18753;DHT22;9505;50.882;5.350;2023-11-19T15:09:17;13.00;99.90
18753;DHT22;9505;50.882;5.350;2023-11-19T15:11:46;13.00;99.90
18753;DHT22;9505;50.882;5.350;2023-11-19T15:14:12;13.00;99.90
18753;DHT22;9505;50.882;5.350;2023-11-19T15:16:42;13.00;99.90
18753;DHT22;9505;50.882;5.350;2023-11-19T15:19:08;13.10;99.90
18753;DHT22;9505;50.882;5.350;2023-11-19T15:21:34;13.00;99.90
18753;DHT22;9505;50.882;5.350;2023-11-19T15:24:00;13.00;99.90
18753;DHT22;9505;50.882;5.350;2023-11-19T15:26:26;13.00;99.90
18753;DHT22;9505;50.882;5.350;2023-11-19T15:28:52;13.00;99.90
18753;DHT22;9505;50.882;5.350;2023-11-19T15:31:23;13.10;99.90
18753;DHT22;9505;50.882;5.350;2023-11-19T15:33:48;13.00;99.90
18753;DHT22;9505;50.882;5.350;2023-11-19T15:36:14;13.00;99.90
18753;DHT22;9505;50.882;5.350;2023-11-19T15:38:40;12.90;99.90
18753;DHT22;9505;50.882;5.350;2023-11-19T15:41:06;12.90;99.90
18753;DHT22;9505;50.882;5.350;2023-11-19T15:43:33;13.00;99.90
18753;DHT22;9505;50.882;5.350;2023-11-19T15:45:58;12.90;99.90
18753;DHT22;9505;50.882;5.350;2023-11-19T15:48:24;12.90;99.90
18753;DHT22;9505;50.882;5.350;2023-11-19T15:50:51;12.90;99.90
18753;DHT22;9505;50.882;5.350;2023-11-19T15:53:17;12.90;99.90
18753;DHT22;9505;50.882;5.350;2023-11-19T15:55:44;12.80;99.90
18753;DHT22;9505;50.882;5.350;2023-11-19T15:58:09;12.80;99.90
18753;DHT22;9505;50.882;5.350;2023-11-19T16:00:35;12.80;99.90
18753;DHT22;9505;50.882;5.350;2023-11-19T16:03:00;12.80;99.90
18753;DHT22;9505;50.882;5.350;2023-11-19T16:05:26;12.80;99.90